Date,TemperatureHighF,TemperatureAvgF,TemperatureLowF,DewpointHighF,DewpointAvgF,DewpointLowF,HumidityHigh,HumidityAvg,HumidityLow,PressureMaxIn,PressureMinIn,WindSpeedMaxMPH,WindSpeedAvgMPH,GustSpeedMaxMPH,PrecipitationSumIn
2013-2-1,52,33,23,40,27,20,91,80,51,30.22,30.06,0,0,0,0.00
2013-2-2,50,28,18,37,22,14,90,80,53,30.27,30.16,0,0,0,0.00
2013-2-3,50,30,22,35,24,18,88,79,50,30.16,30.02,0,0,0,0.00
2013-2-4,54,33,22,36,25,18,88,74,44,30.03,29.91,0,0,0,0.00
2013-2-5,48,35,26,32,26,21,85,72,51,29.92,29.75,0,0,0,0.00
2013-2-6,52,30,21,31,22,16,88,74,43,29.96,29.83,0,0,0,0.00
2013-2-7,42,30,21,28,21,16,82,69,51,29.93,29.73,0,0,0,0.00
2013-2-8,48,32,24,28,22,16,85,68,43,29.75,29.63,0,0,0,0.00
2013-2-9,44,29,19,21,16,12,74,61,38,29.78,29.64,0,0,0,0.00
2013-2-10,45,27,16,18,12,6,74,55,28,29.94,29.77,0,0,0,0.00
2013-2-11,49,24,10,23,10,2,71,58,34,30.02,29.93,0,0,0,0.00
2013-2-12,44,29,17,27,19,10,78,67,51,30.15,30.02,0,0,0,0.00
2013-2-13,49,34,27,32,25,20,80,70,48,30.15,30.06,0,0,0,0.00
2013-2-14,53,31,20,30,21,15,90,69,38,30.27,30.10,0,0,0,0.00
2013-2-15,60,32,18,34,21,14,85,67,36,30.30,30.20,0,0,0,0.00
2013-2-16,62,34,21,36,24,16,90,69,37,30.20,29.81,5,0,5,0.00
2013-2-17,42,30,19,30,21,12,88,70,44,29.93,29.83,0,0,0,0.00
2013-2-18,47,27,14,22,14,9,83,61,34,29.93,29.63,0,0,0,0.00
2013-2-19,44,31,25,32,22,12,82,69,51,29.63,29.51,0,0,0,0.00
2013-2-20,49,29,19,30,19,11,88,68,40,29.74,29.57,0,0,0,0.00
2013-2-21,48,25,9,23,14,4,82,66,36,29.87,29.73,0,0,0,0.00
2013-2-22,40,30,23,28,24,18,85,78,61,29.94,29.68,0,0,0,0.00
2013-2-23,44,28,17,27,20,12,87,72,45,29.98,29.57,8,0,8,0.00
2013-2-24,49,24,10,28,14,5,88,68,36,30.08,29.97,4,0,4,0.00
2013-2-25,38,23,12,27,17,7,84,78,62,30.04,29.87,0,0,0,0.00
2013-2-26,48,26,12,30,16,8,89,71,40,30.13,29.93,0,0,0,0.00
2013-2-27,52,26,11,28,15,7,84,65,36,30.18,30.12,0,0,0,0.00
2013-2-28,44,32,22,32,24,14,86,73,53,30.28,30.12,3,0,3,0.00